createdAt,value
2022-10-04T00:03:03.952Z,99518.09
2022-10-04T00:06:11.909Z,99520.83
2022-10-04T00:09:24.458Z,99519.19
2022-10-04T00:12:28.810Z,99521.66
2022-10-04T00:15:42.167Z,99521.08
2022-10-04T00:18:53.882Z,99527.61
2022-10-04T00:22:17.169Z,99531.61
2022-10-04T00:25:31.177Z,99526.02
2022-10-04T00:28:41.640Z,99529.13
2022-10-04T00:31:46.830Z,99532.85
2022-10-04T00:35:04.465Z,99540.94
2022-10-04T00:38:24.481Z,99534.70
2022-10-04T00:41:29.527Z,99533.38
2022-10-04T00:44:53.958Z,99539.25
2022-10-04T00:48:04.552Z,99537.93
2022-10-04T00:51:12.747Z,99536.89
2022-10-04T00:54:47.765Z,99526.73
2022-10-04T00:57:58.059Z,99531.26
2022-10-04T01:01:04.815Z,99527.48
2022-10-04T01:04:10.370Z,99523.80
2022-10-04T01:07:17.387Z,99528.93
2022-10-04T01:10:36.073Z,99526.77
2022-10-04T01:13:54.571Z,99534.66
2022-10-04T01:16:59.580Z,99533.78
2022-10-04T01:20:07.913Z,99538.80
2022-10-04T01:23:14.482Z,99539.48
2022-10-04T01:26:21.553Z,99537.84
2022-10-04T01:29:44.214Z,99533.39
2022-10-04T01:32:51.685Z,99542.66
2022-10-04T01:35:58.385Z,99538.79
2022-10-04T01:39:04.788Z,99543.20
2022-10-04T01:42:18.851Z,99548.17
2022-10-04T01:45:45.440Z,99549.05
2022-10-04T01:48:51.535Z,99540.39
2022-10-04T01:52:08.194Z,99543.19
2022-10-04T01:55:29.025Z,99540.84
2022-10-04T01:58:37.831Z,99538.83
2022-10-04T02:01:51.708Z,99540.45
2022-10-04T02:04:59.556Z,99541.36
2022-10-04T02:08:04.810Z,99544.11
2022-10-04T02:11:11.488Z,99552.45
2022-10-04T02:14:18.125Z,99554.72
2022-10-04T02:17:25.189Z,99553.20
2022-10-04T02:20:40.921Z,99558.97
2022-10-04T02:23:47.327Z,99561.20
2022-10-04T02:26:53.520Z,99565.66
2022-10-04T02:29:59.199Z,99563.98
2022-10-04T02:33:11.077Z,99564.89
2022-10-04T02:36:17.326Z,99569.08
2022-10-04T02:39:31.071Z,99569.52
2022-10-04T02:42:53.147Z,99568.78
2022-10-04T02:49:54.102Z,99573.28
2022-10-04T02:53:02.437Z,99574.81
2022-10-04T02:56:09.402Z,99575.83
2022-10-04T02:59:20.383Z,99572.36
2022-10-04T03:02:38.533Z,99574.08
2022-10-04T03:05:43.471Z,99585.98
2022-10-04T03:08:59.138Z,99580.83
2022-10-04T03:12:05.635Z,99579.17
2022-10-04T03:15:12.511Z,99590.47
2022-10-04T03:18:17.583Z,99586.70
2022-10-04T03:21:25.364Z,99581.19
2022-10-04T03:24:39.283Z,99580.51
2022-10-04T03:27:48.857Z,99587.03
2022-10-04T03:31:00.562Z,99590.08
2022-10-04T03:34:06.261Z,99593.00
2022-10-04T03:37:12.027Z,99592.83
2022-10-04T03:40:17.367Z,99592.83
2022-10-04T03:43:23.438Z,99590.63
2022-10-04T03:46:30.487Z,99591.85
2022-10-04T03:49:50.857Z,99598.28
2022-10-04T03:52:52.616Z,99607.53
2022-10-04T03:56:04.173Z,99606.05
2022-10-04T03:59:08.021Z,99614.25
2022-10-04T04:02:18.699Z,99618.57
2022-10-04T04:05:45.807Z,99618.77
2022-10-04T04:08:57.200Z,99631.88
2022-10-04T04:12:04.567Z,99631.36
2022-10-04T04:15:12.225Z,99637.69
2022-10-04T04:18:23.240Z,99648.06
2022-10-04T04:21:32.753Z,99649.27
2022-10-04T04:24:45.410Z,99656.22
2022-10-04T04:27:53.754Z,99656.54
2022-10-04T04:31:03.288Z,99664.68
2022-10-04T04:34:15.726Z,99665.52
2022-10-04T04:37:23.934Z,99670.21
2022-10-04T04:40:39.581Z,99662.48
2022-10-04T04:43:45.272Z,99668.22
2022-10-04T04:46:52.859Z,99671.88
2022-10-04T04:49:58.915Z,99673.87
2022-10-04T04:53:10.304Z,99670.56
2022-10-04T04:56:18.617Z,99673.37
2022-10-04T04:59:23.879Z,99676.00
2022-10-04T05:02:45.233Z,99685.27
2022-10-04T05:05:51.935Z,99688.91
2022-10-04T05:09:02.611Z,99683.66
2022-10-04T05:12:14.828Z,99681.50
2022-10-04T05:15:22.474Z,99690.94
2022-10-04T05:18:41.513Z,99694.23
2022-10-04T05:21:50.739Z,99701.46
2022-10-04T05:24:58.889Z,99704.06
2022-10-04T05:28:03.958Z,99710.96
2022-10-04T05:31:48.452Z,99708.25
2022-10-04T05:34:56.630Z,99713.27
2022-10-04T05:38:12.047Z,99714.60
2022-10-04T05:41:33.494Z,99713.34
2022-10-04T05:44:53.074Z,99711.98
2022-10-04T05:47:56.072Z,99706.39
2022-10-04T05:50:56.946Z,99715.97
2022-10-04T05:54:01.936Z,99737.44
2022-10-04T05:57:35.579Z,99732.16
2022-10-04T06:01:13.469Z,99737.36
2022-10-04T06:04:35.140Z,99742.06
2022-10-04T06:08:01.028Z,99744.45
2022-10-04T06:11:17.518Z,99753.00
2022-10-04T06:15:10.050Z,99748.58
2022-10-04T06:18:41.333Z,99751.83
2022-10-04T06:22:18.520Z,99753.76
2022-10-04T06:25:29.093Z,99756.08
2022-10-04T06:28:51.304Z,99755.72
2022-10-04T06:32:21.316Z,99748.02
2022-10-04T06:35:35.798Z,99753.21
2022-10-04T06:38:51.733Z,99759.17
2022-10-04T06:42:41.639Z,99760.49
2022-10-04T06:46:07.697Z,99762.09
2022-10-04T06:49:41.201Z,99765.50
2022-10-04T06:53:05.795Z,99771.86
2022-10-04T06:56:50.478Z,99769.69
2022-10-04T07:00:26.354Z,99772.06
2022-10-04T07:04:07.084Z,99770.40
2022-10-04T07:07:45.914Z,99774.22
2022-10-04T07:11:12.210Z,99777.23
2022-10-04T07:14:32.250Z,99785.33
2022-10-04T07:17:48.878Z,99773.32
2022-10-04T07:20:55.884Z,99787.59
2022-10-04T07:24:13.230Z,99784.97
2022-10-04T07:27:20.198Z,99785.31
2022-10-04T07:30:33.081Z,99787.84
2022-10-04T07:33:41.289Z,99790.29
2022-10-04T07:37:12.776Z,99790.09
2022-10-04T07:40:34.516Z,99795.36
2022-10-04T07:43:52.155Z,99797.82
2022-10-04T07:47:08.127Z,99794.21
2022-10-04T07:50:14.240Z,99796.31
2022-10-04T07:53:32.465Z,99789.45
2022-10-04T07:56:49.156Z,99792.32
2022-10-04T08:00:05.759Z,99796.13
2022-10-04T08:03:55.753Z,99803.93
2022-10-04T08:07:19.859Z,99809.11
2022-10-04T08:10:45.563Z,99811.53
2022-10-04T08:14:08.355Z,99807.00
2022-10-04T08:17:39.859Z,99809.73
2022-10-04T08:21:08.889Z,99806.41
2022-10-04T08:24:41.073Z,99809.59
2022-10-04T08:28:17.687Z,99819.61
2022-10-04T08:31:35.461Z,99824.39
2022-10-04T08:35:01.510Z,99822.41
2022-10-04T08:38:36.476Z,99823.05
2022-10-04T08:42:20.431Z,99825.37
2022-10-04T08:45:59.598Z,99826.42
2022-10-04T08:49:35.987Z,99828.23
2022-10-04T08:53:11.681Z,99829.41
2022-10-04T08:57:15.697Z,99823.73
2022-10-04T09:00:33.453Z,99823.73
2022-10-04T09:04:19.431Z,99821.91
2022-10-04T09:07:49.725Z,99823.51
2022-10-04T09:11:32.228Z,99828.50
2022-10-04T09:15:13.563Z,99832.83
2022-10-04T09:19:07.936Z,99837.37
2022-10-04T09:22:33.733Z,99837.69
2022-10-04T09:26:01.929Z,99840.66
2022-10-04T09:29:34.479Z,99842.55
2022-10-04T09:32:49.987Z,99847.95
2022-10-04T09:36:30.769Z,99853.44
2022-10-04T09:40:32.841Z,99853.86
2022-10-04T09:44:11.483Z,99860.09
2022-10-04T09:47:47.715Z,99865.30
2022-10-04T09:51:21.514Z,99869.23
2022-10-04T09:54:57.618Z,99873.22
2022-10-04T09:59:01.224Z,99873.86
2022-10-04T10:02:39.302Z,99877.58
2022-10-04T10:06:28.621Z,99882.02
2022-10-04T10:09:57.622Z,99885.73
2022-10-04T10:13:31.883Z,99888.81
2022-10-04T10:17:12.832Z,99896.13
2022-10-04T10:20:42.910Z,99897.45
2022-10-04T10:24:08.349Z,99895.73
2022-10-04T10:27:41.237Z,99901.67
2022-10-04T10:31:28.037Z,99901.98
2022-10-04T10:34:49.722Z,99900.80
2022-10-04T10:38:32.116Z,99905.23
2022-10-04T10:41:58.971Z,99913.70
2022-10-04T10:45:21.128Z,99908.91
2022-10-04T10:48:36.143Z,99908.03
2022-10-04T10:52:05.436Z,99907.04
2022-10-04T10:55:44.185Z,99912.39
2022-10-04T10:59:24.280Z,99908.40
2022-10-04T11:03:13.159Z,99909.66
2022-10-04T11:06:25.601Z,99916.61
2022-10-04T11:10:13.037Z,99921.19
2022-10-04T11:13:53.615Z,99921.73
2022-10-04T11:17:22.262Z,99936.69
2022-10-04T11:20:54.722Z,99934.06
2022-10-04T11:24:52.402Z,99938.08
2022-10-04T11:28:17.335Z,99942.21
2022-10-04T11:32:00.446Z,99948.91
2022-10-04T11:35:44.138Z,99953.84
2022-10-04T11:39:07.164Z,99959.05
2022-10-04T11:42:33.743Z,99963.00
2022-10-04T11:46:11.158Z,99961.17
2022-10-04T11:49:49.773Z,99968.09
2022-10-04T11:53:33.402Z,99969.28
2022-10-04T11:57:05.981Z,99980.19
2022-10-04T12:00:34.021Z,99988.77
2022-10-04T12:04:14.091Z,99988.46
2022-10-04T12:08:01.418Z,99996.73
2022-10-04T12:11:45.818Z,100000.22
2022-10-04T12:15:01.511Z,100000.33
2022-10-04T12:18:39.871Z,99999.52
2022-10-04T12:22:16.957Z,100004.49
2022-10-04T12:25:56.072Z,100000.89
2022-10-04T12:29:27.132Z,100007.67
2022-10-04T12:32:33.763Z,100018.17
2022-10-04T12:35:48.459Z,100015.02
2022-10-04T12:39:14.108Z,100022.02
2022-10-04T12:42:44.793Z,100022.12
2022-10-04T12:46:04.581Z,100035.79
2022-10-04T12:49:24.030Z,100035.25
2022-10-04T12:52:35.429Z,100031.22
2022-10-04T12:56:09.344Z,100029.31
2022-10-04T12:59:42.328Z,100025.62
2022-10-04T13:02:56.854Z,100032.29
2022-10-04T13:06:20.219Z,100039.91
2022-10-04T13:09:32.703Z,100041.70
2022-10-04T13:12:43.570Z,100045.11
2022-10-04T13:18:57.959Z,100044.90
2022-10-04T13:22:13.312Z,100047.44
2022-10-04T13:25:45.198Z,100051.44
2022-10-04T13:29:01.175Z,100053.32
2022-10-04T13:32:14.476Z,100044.13
2022-10-04T13:35:31.961Z,100045.72
2022-10-04T13:39:05.810Z,100049.84
2022-10-04T13:42:28.400Z,100056.30
2022-10-04T13:46:13.651Z,100061.04
2022-10-04T13:49:57.106Z,100057.50
2022-10-04T13:53:37.283Z,100060.56
2022-10-04T13:57:09.750Z,100067.94
2022-10-04T14:00:27.058Z,100070.86
2022-10-04T14:04:03.434Z,100074.83
2022-10-04T14:07:47.626Z,100083.33
2022-10-04T14:11:40.796Z,100087.05
2022-10-04T14:15:17.939Z,100089.15
2022-10-04T14:19:01.172Z,100100.37
2022-10-04T14:22:10.037Z,100090.80
2022-10-04T14:25:35.128Z,100101.19
2022-10-04T14:29:22.992Z,100100.91
2022-10-04T14:32:54.461Z,100111.39
2022-10-04T14:36:11.815Z,100118.09
2022-10-04T14:39:31.105Z,100116.74
2022-10-04T14:43:03.422Z,100125.63
2022-10-04T14:46:31.548Z,100131.97
2022-10-04T14:50:16.086Z,100132.78
2022-10-04T14:53:48.098Z,100147.34
2022-10-04T14:57:20.942Z,100147.86
2022-10-04T15:00:37.457Z,100152.39
2022-10-04T15:04:09.481Z,100159.70
2022-10-04T15:07:45.783Z,100161.50
2022-10-04T15:10:52.454Z,100164.02
2022-10-04T15:14:09.050Z,100166.03
2022-10-04T15:17:18.510Z,100172.77
2022-10-04T15:21:06.510Z,100183.78
2022-10-04T15:24:34.729Z,100187.77
2022-10-04T15:27:56.029Z,100191.88
2022-10-04T15:31:08.301Z,100202.20
2022-10-04T15:34:40.180Z,100208.77
2022-10-04T15:38:14.471Z,100213.76
2022-10-04T15:41:35.538Z,100222.86
2022-10-04T15:45:05.089Z,100231.08
2022-10-04T15:48:39.863Z,100239.01
2022-10-04T15:52:14.749Z,100249.12
2022-10-04T15:55:52.337Z,100248.96
2022-10-04T15:59:36.282Z,100253.27
2022-10-04T16:03:34.108Z,100252.97
2022-10-04T16:06:48.701Z,100262.39
2022-10-04T16:10:17.248Z,100259.30
2022-10-04T16:13:37.136Z,100269.05
2022-10-04T16:17:26.004Z,100268.91
2022-10-04T16:20:42.771Z,100273.58
2022-10-04T16:23:52.601Z,100276.86
2022-10-04T16:27:03.450Z,100281.33
2022-10-04T16:30:53.580Z,100288.72
2022-10-04T16:34:22.284Z,100287.77
2022-10-04T16:37:42.803Z,100287.29
2022-10-04T16:41:01.233Z,100291.63
2022-10-04T16:44:01.883Z,100292.71
2022-10-04T16:47:07.217Z,100297.23
2022-10-04T16:50:14.869Z,100306.14
2022-10-04T16:53:45.138Z,100305.87
2022-10-04T16:57:13.400Z,100304.34
2022-10-04T17:00:47.346Z,100305.41
2022-10-04T17:03:56.192Z,100313.14
2022-10-04T17:07:26.478Z,100321.52
2022-10-04T17:10:51.984Z,100321.77
2022-10-04T17:14:12.405Z,100325.35
2022-10-04T17:17:31.748Z,100329.61
2022-10-04T17:20:59.167Z,100323.81
2022-10-04T17:24:17.548Z,100322.48
2022-10-04T17:27:59.993Z,100330.84
2022-10-04T17:31:21.642Z,100324.68
2022-10-04T17:35:21.593Z,100326.22
2022-10-04T17:39:12.389Z,100325.88
2022-10-04T17:42:50.699Z,100328.95
2022-10-04T17:46:18.531Z,100338.30
2022-10-04T17:50:19.966Z,100342.53
2022-10-04T17:53:53.538Z,100338.59
2022-10-04T17:57:06.479Z,100342.69
2022-10-04T18:00:26.085Z,100342.13
2022-10-04T18:03:57.095Z,100346.38
2022-10-04T18:07:20.823Z,100342.92
2022-10-04T18:10:52.468Z,100351.78
2022-10-04T18:14:26.990Z,100350.73
2022-10-04T18:17:48.816Z,100356.46
2022-10-04T18:21:14.229Z,100355.56
2022-10-04T18:24:37.681Z,100355.25
2022-10-04T18:27:44.551Z,100356.42
2022-10-04T18:31:06.650Z,100357.75
2022-10-04T18:34:33.610Z,100358.58
2022-10-04T18:37:51.306Z,100362.13
2022-10-04T18:41:01.848Z,100362.09
2022-10-04T18:44:16.100Z,100362.91
2022-10-04T18:47:27.568Z,100367.31
2022-10-04T18:50:53.688Z,100362.17
2022-10-04T18:54:00.523Z,100365.75
2022-10-04T18:57:35.650Z,100365.38
2022-10-04T19:01:23.365Z,100367.25
2022-10-04T19:04:33.353Z,100372.67
2022-10-04T19:08:20.152Z,100376.72
2022-10-04T19:11:30.975Z,100377.36
2022-10-04T19:14:56.696Z,100374.27
2022-10-04T19:18:47.507Z,100381.58
2022-10-04T19:22:17.846Z,100381.24
2022-10-04T19:26:09.919Z,100383.76
2022-10-04T19:28:54.530Z,100383.37
2022-10-04T19:32:17.019Z,100388.79
2022-10-04T19:35:42.395Z,100386.91
2022-10-04T19:38:57.288Z,100384.28
2022-10-04T19:42:19.025Z,100383.77
2022-10-04T19:45:55.019Z,100388.49
2022-10-04T19:49:05.763Z,100384.02
2022-10-04T19:52:30.392Z,100389.94
2022-10-04T19:55:50.779Z,100390.91
2022-10-04T19:59:15.024Z,100392.73
2022-10-04T20:02:25.688Z,100395.58
2022-10-04T20:05:35.073Z,100408.47
2022-10-04T20:09:13.584Z,100407.43
2022-10-04T20:12:20.100Z,100403.00
2022-10-04T20:15:38.747Z,100412.99
2022-10-04T20:18:57.929Z,100415.84
2022-10-04T20:22:04.611Z,100412.61
2022-10-04T20:25:04.565Z,100417.20
2022-10-04T20:28:15.132Z,100420.78
2022-10-04T20:31:20.413Z,100421.16
2022-10-04T20:34:50.140Z,100420.65
2022-10-04T20:38:30.522Z,100418.61
2022-10-04T20:41:23.712Z,100417.97
2022-10-04T20:44:30.208Z,100418.45
2022-10-04T20:47:45.892Z,100422.06
2022-10-04T20:50:56.860Z,100422.06
2022-10-04T20:54:02.642Z,100421.17
2022-10-04T20:57:08.639Z,100431.20
2022-10-04T21:00:13.978Z,100425.58
2022-10-04T21:03:30.349Z,100431.31
2022-10-04T21:06:35.724Z,100434.20
2022-10-04T21:09:42.634Z,100429.40
2022-10-04T21:12:53.561Z,100434.95
2022-10-04T21:16:12.305Z,100428.77
2022-10-04T21:19:52.154Z,100429.86
2022-10-04T21:22:58.525Z,100429.33
2022-10-04T21:26:05.181Z,100425.36
2022-10-04T21:29:12.470Z,100429.56
2022-10-04T21:32:17.853Z,100429.00
2022-10-04T21:35:24.613Z,100431.19
2022-10-04T21:38:31.787Z,100428.92
2022-10-04T21:41:36.859Z,100431.58
2022-10-04T21:44:42.357Z,100426.94
2022-10-04T21:47:48.337Z,100432.38
2022-10-04T21:50:54.720Z,100436.61
2022-10-04T21:54:02.103Z,100438.98
2022-10-04T21:57:06.854Z,100445.40
2022-10-04T22:00:13.271Z,100438.55
2022-10-04T22:03:19.645Z,100442.94
2022-10-04T22:06:25.995Z,100451.95
2022-10-04T22:09:32.690Z,100450.37
2022-10-04T22:12:38.526Z,100457.48
2022-10-04T22:15:44.028Z,100452.99
2022-10-04T22:18:50.123Z,100458.37
2022-10-04T22:21:56.150Z,100464.30
2022-10-04T22:25:02.673Z,100462.38
2022-10-04T22:28:08.499Z,100456.53
2022-10-04T22:31:14.936Z,100466.16
2022-10-04T22:34:26.667Z,100461.20
2022-10-04T22:37:38.302Z,100464.20
2022-10-04T22:40:45.557Z,100469.41
2022-10-04T22:43:51.674Z,100472.05
2022-10-04T22:47:01.008Z,100472.14
2022-10-04T22:50:07.291Z,100473.80
2022-10-04T22:53:15.151Z,100472.88
2022-10-04T22:56:21.294Z,100477.46
2022-10-04T22:59:28.371Z,100477.80
2022-10-04T23:02:39.386Z,100481.95
2022-10-04T23:05:44.519Z,100482.45
2022-10-04T23:08:50.229Z,100482.66
2022-10-04T23:11:56.810Z,100489.17
2022-10-04T23:15:03.963Z,100488.66
2022-10-04T23:18:11.612Z,100479.16
2022-10-04T23:21:19.850Z,100477.64
2022-10-04T23:24:35.432Z,100477.98
2022-10-04T23:27:40.333Z,100484.16
2022-10-04T23:30:46.267Z,100477.05
2022-10-04T23:33:52.366Z,100480.50
2022-10-04T23:36:58.020Z,100480.22
2022-10-04T23:40:03.732Z,100479.05
2022-10-04T23:43:14.916Z,100478.70
2022-10-04T23:46:33.085Z,100486.34
2022-10-04T23:49:38.587Z,100481.77
2022-10-04T23:52:53.451Z,100488.13
2022-10-04T23:55:59.086Z,100492.86
2022-10-04T23:59:06.695Z,100492.48
